createdAt,value
2017-06-22T00:02:13.668Z,63.58
2017-06-22T00:04:43.535Z,63.54
2017-06-22T00:07:10.978Z,63.81
2017-06-22T00:09:38.822Z,63.96
2017-06-22T00:12:06.960Z,64.47
2017-06-22T00:14:34.744Z,64.73
2017-06-22T00:17:02.201Z,64.71
2017-06-22T00:19:29.623Z,65.16
2017-06-22T00:21:58.764Z,65.69
2017-06-22T00:24:28.534Z,66.04
2017-06-22T00:26:56.296Z,66.78
2017-06-22T00:29:23.776Z,67.20
2017-06-22T00:31:52.026Z,67.53
2017-06-22T00:34:19.458Z,67.93
2017-06-22T00:36:47.397Z,68.21
2017-06-22T00:39:15.294Z,68.57
2017-06-22T00:41:45.175Z,68.71
2017-06-22T00:44:13.829Z,68.92
2017-06-22T00:46:43.898Z,69.12
2017-06-22T00:49:11.951Z,69.32
2017-06-22T00:51:44.654Z,69.27
2017-06-22T00:54:12.071Z,69.17
2017-06-22T00:56:49.164Z,69.21
2017-06-22T00:59:16.586Z,69.17
2017-06-22T01:01:44.066Z,69.27
2017-06-22T01:04:12.566Z,69.15
2017-06-22T01:06:39.991Z,68.95
2017-06-22T01:09:08.253Z,68.99
2017-06-22T01:11:36.230Z,69.04
2017-06-22T01:14:03.655Z,69.10
2017-06-22T01:16:31.070Z,68.47
2017-06-22T01:18:58.659Z,68.65
2017-06-22T01:21:26.086Z,68.90
2017-06-22T01:23:54.391Z,68.91
2017-06-22T01:26:22.038Z,69.09
2017-06-22T01:28:50.186Z,69.01
2017-06-22T01:31:18.047Z,68.93
2017-06-22T01:33:48.355Z,69.04
2017-06-22T01:36:16.031Z,69.63
2017-06-22T01:38:43.451Z,69.76
2017-06-22T01:41:10.902Z,69.75
2017-06-22T01:43:38.327Z,69.82
2017-06-22T01:46:05.959Z,69.67
2017-06-22T01:48:33.670Z,69.89
2017-06-22T01:51:01.095Z,69.91
2017-06-22T01:53:28.755Z,69.89
2017-06-22T01:55:56.634Z,69.78
2017-06-22T01:58:24.091Z,68.95
2017-06-22T02:00:51.956Z,67.90
2017-06-22T02:03:19.891Z,67.54
2017-06-22T02:05:49.806Z,66.83
2017-06-22T02:08:17.690Z,67.17
2017-06-22T02:10:45.122Z,67.92
2017-06-22T02:13:12.550Z,67.95
2017-06-22T02:15:40.308Z,67.88
2017-06-22T02:18:07.778Z,67.77
2017-06-22T02:20:35.830Z,68.06
2017-06-22T02:23:03.255Z,68.14
2017-06-22T02:25:30.702Z,68.15
2017-06-22T02:27:58.459Z,68.43
2017-06-22T02:30:26.748Z,68.52
2017-06-22T02:32:54.237Z,68.50
2017-06-22T02:35:21.657Z,68.50
2017-06-22T02:37:49.074Z,68.66
2017-06-22T02:40:16.515Z,68.77
2017-06-22T02:42:43.968Z,68.59
2017-06-22T02:45:11.383Z,68.51
2017-06-22T02:47:43.118Z,68.44
2017-06-22T02:50:14.496Z,68.47
2017-06-22T02:52:45.272Z,68.52
2017-06-22T02:55:14.274Z,68.69
2017-06-22T02:57:44.302Z,68.51
2017-06-22T03:00:12.444Z,68.53
2017-06-22T03:02:39.871Z,67.87
2017-06-22T03:05:07.455Z,68.17
2017-06-22T03:08:00.738Z,68.23
2017-06-22T03:10:28.627Z,68.38
2017-06-22T03:12:56.501Z,68.12
2017-06-22T03:15:23.918Z,68.13
2017-06-22T03:17:54.304Z,68.19
2017-06-22T03:20:22.051Z,68.01
2017-06-22T03:22:49.498Z,68.14
2017-06-22T03:25:17.349Z,68.08
2017-06-22T03:27:44.827Z,68.29
2017-06-22T03:30:12.454Z,68.22
2017-06-22T03:32:40.934Z,68.21
2017-06-22T03:35:08.690Z,67.64
2017-06-22T03:37:36.111Z,67.27
2017-06-22T03:40:03.935Z,67.12
2017-06-22T03:42:31.367Z,66.76
2017-06-22T03:44:59.106Z,66.45
2017-06-22T03:47:26.551Z,66.54
2017-06-22T03:49:53.963Z,66.58
2017-06-22T03:52:22.026Z,66.85
2017-06-22T03:54:49.944Z,67.43
2017-06-22T03:57:17.382Z,67.33
2017-06-22T03:59:44.810Z,67.49
2017-06-22T04:02:28.274Z,67.30
2017-06-22T04:04:55.698Z,67.43
2017-06-22T04:07:23.127Z,67.10
2017-06-22T04:09:51.046Z,66.88
2017-06-22T04:12:18.618Z,66.96
2017-06-22T04:14:46.039Z,66.61
2017-06-22T04:17:13.646Z,66.70
2017-06-22T04:19:41.078Z,65.75
2017-06-22T04:22:08.513Z,65.90
2017-06-22T04:24:36.050Z,65.42
2017-06-22T04:27:03.473Z,65.54
2017-06-22T04:29:30.963Z,65.79
2017-06-22T04:31:58.778Z,65.32
2017-06-22T04:34:26.889Z,65.46
2017-06-22T04:36:54.448Z,65.36
2017-06-22T04:39:22.367Z,65.07
2017-06-22T04:41:49.782Z,65.41
2017-06-22T04:44:17.818Z,65.53
2017-06-22T04:46:45.699Z,65.69
2017-06-22T04:49:14.072Z,65.39
2017-06-22T04:51:41.487Z,65.44
2017-06-22T04:54:09.156Z,65.23
2017-06-22T04:56:37.004Z,64.74
2017-06-22T04:59:04.425Z,64.40
2017-06-22T05:01:31.883Z,63.65
2017-06-22T05:03:59.779Z,64.35
2017-06-22T05:06:27.217Z,64.25
2017-06-22T05:08:54.746Z,63.54
2017-06-22T05:11:22.170Z,63.71
2017-06-22T05:13:56.182Z,64.19
2017-06-22T05:16:24.004Z,63.71
2017-06-22T05:18:51.439Z,64.06
2017-06-22T05:21:20.390Z,64.34
2017-06-22T05:23:48.258Z,64.42
2017-06-22T05:26:16.514Z,64.30
2017-06-22T05:28:44.107Z,64.20
2017-06-22T05:31:11.880Z,64.34
2017-06-22T05:33:44.185Z,64.43
2017-06-22T05:36:11.910Z,63.93
2017-06-22T05:38:40.186Z,63.61
2017-06-22T05:41:08.009Z,63.30
2017-06-22T05:43:39.937Z,61.97
2017-06-22T05:46:07.686Z,61.87
2017-06-22T05:48:35.436Z,61.83
2017-06-22T05:51:03.421Z,61.95
2017-06-22T05:53:30.848Z,61.20
2017-06-22T05:55:58.317Z,61.09
2017-06-22T05:58:25.886Z,60.46
2017-06-22T06:00:53.331Z,61.59
2017-06-22T06:03:20.764Z,60.30
2017-06-22T06:05:48.371Z,61.04
2017-06-22T06:08:15.794Z,61.25
2017-06-22T06:10:43.229Z,60.31
2017-06-22T06:13:13.058Z,60.39
2017-06-22T06:15:40.796Z,60.37
2017-06-22T06:18:08.222Z,59.14
2017-06-22T06:20:35.761Z,60.71
2017-06-22T06:23:06.264Z,58.90
2017-06-22T06:25:33.690Z,58.82
2017-06-22T06:28:01.678Z,58.93
2017-06-22T06:30:29.379Z,59.70
2017-06-22T06:32:57.269Z,58.52
2017-06-22T06:35:24.775Z,59.14
2017-06-22T06:37:52.190Z,59.65
2017-06-22T06:40:21.986Z,58.91
2017-06-22T06:42:49.908Z,57.64
2017-06-22T06:45:19.825Z,59.58
2017-06-22T06:47:47.255Z,57.90
2017-06-22T06:50:17.750Z,58.78
2017-06-22T06:52:45.920Z,57.64
2017-06-22T06:55:13.345Z,58.58
2017-06-22T06:57:40.810Z,60.16
2017-06-22T07:00:08.242Z,59.73
2017-06-22T07:02:35.663Z,58.20
2017-06-22T07:05:09.975Z,56.96
2017-06-22T07:07:37.398Z,56.92
2017-06-22T07:10:07.915Z,55.69
2017-06-22T07:12:36.441Z,56.43
2017-06-22T07:15:06.488Z,54.40
2017-06-22T07:17:34.662Z,53.24
2017-06-22T07:20:02.227Z,54.72
2017-06-22T07:22:29.659Z,55.29
2017-06-22T07:24:58.848Z,53.28
2017-06-22T07:27:26.268Z,50.16
2017-06-22T07:29:53.718Z,51.11
2017-06-22T07:32:21.635Z,52.38
2017-06-22T07:34:49.051Z,49.71
2017-06-22T07:37:16.805Z,50.89
2017-06-22T07:39:44.339Z,51.16
2017-06-22T07:42:11.759Z,53.46
2017-06-22T07:44:39.230Z,49.00
2017-06-22T07:47:06.983Z,49.09
2017-06-22T07:49:34.678Z,49.80
2017-06-22T07:52:02.922Z,50.90
2017-06-22T07:54:30.983Z,50.48
2017-06-22T07:56:58.850Z,52.57
2017-06-22T07:59:26.270Z,50.30
2017-06-22T08:01:53.859Z,51.49
2017-06-22T08:04:21.279Z,49.18
2017-06-22T08:06:49.783Z,49.98
2017-06-22T08:09:17.626Z,48.95
2017-06-22T08:11:45.995Z,48.90
2017-06-22T08:14:14.239Z,49.57
2017-06-22T08:16:42.000Z,50.07
2017-06-22T08:19:09.459Z,48.74
2017-06-22T08:21:37.042Z,48.02
2017-06-22T08:24:04.935Z,48.00
2017-06-22T08:26:33.527Z,49.62
2017-06-22T08:29:00.947Z,50.60
2017-06-22T08:31:31.447Z,48.16
2017-06-22T08:33:59.570Z,47.68
2017-06-22T08:36:27.147Z,46.38
2017-06-22T08:38:59.074Z,47.83
2017-06-22T08:41:27.286Z,48.57
2017-06-22T08:43:57.046Z,47.80
2017-06-22T08:46:24.850Z,48.29
2017-06-22T08:48:52.278Z,48.19
2017-06-22T08:51:20.036Z,45.26
2017-06-22T08:53:55.045Z,45.56
2017-06-22T08:56:22.459Z,44.88
2017-06-22T08:58:50.518Z,45.62
2017-06-22T09:01:17.990Z,45.21
2017-06-22T09:03:45.405Z,47.41
2017-06-22T09:06:12.991Z,43.22
2017-06-22T09:08:42.979Z,43.74
2017-06-22T09:11:10.866Z,44.48
2017-06-22T09:13:38.286Z,43.21
2017-06-22T09:16:05.772Z,42.61
2017-06-22T09:18:33.204Z,45.77
2017-06-22T09:21:00.629Z,42.75
2017-06-22T09:23:28.747Z,41.32
2017-06-22T09:25:56.163Z,42.11
2017-06-22T09:28:24.954Z,42.21
2017-06-22T09:30:53.328Z,42.45
2017-06-22T09:33:23.243Z,42.07
2017-06-22T09:35:53.032Z,42.60
2017-06-22T09:38:20.702Z,44.01
2017-06-22T09:40:48.398Z,40.09
2017-06-22T09:43:16.274Z,41.68
2017-06-22T09:45:44.416Z,39.19
2017-06-22T09:48:11.887Z,37.01
2017-06-22T09:50:41.778Z,37.38
2017-06-22T09:53:09.199Z,35.64
2017-06-22T09:55:37.139Z,37.07
2017-06-22T09:58:04.736Z,37.03
2017-06-22T10:00:32.155Z,36.50
2017-06-22T10:02:59.571Z,33.33
2017-06-22T10:05:27.511Z,34.33
2017-06-22T10:07:55.226Z,33.90
2017-06-22T10:10:23.099Z,33.11
2017-06-22T10:12:50.584Z,34.39
2017-06-22T10:15:20.637Z,32.23
2017-06-22T10:17:48.047Z,30.63
2017-06-22T10:20:15.611Z,32.49
2017-06-22T10:22:43.544Z,33.98
2017-06-22T10:25:10.962Z,34.93
2017-06-22T10:27:39.455Z,31.59
2017-06-22T10:30:07.692Z,30.08
2017-06-22T10:32:35.110Z,31.81
2017-06-22T10:35:02.640Z,30.06
2017-06-22T10:37:30.055Z,30.62
2017-06-22T10:39:58.169Z,30.08
2017-06-22T10:42:27.182Z,29.24
2017-06-22T10:44:54.625Z,30.20
2017-06-22T10:47:22.490Z,30.97
2017-06-22T10:49:50.534Z,29.90
2017-06-22T10:52:17.963Z,29.23
2017-06-22T10:54:45.414Z,29.66
2017-06-22T10:57:13.692Z,29.85
2017-06-22T10:59:42.018Z,29.52
2017-06-22T11:02:09.772Z,30.00
2017-06-22T11:04:37.402Z,29.64
2017-06-22T11:07:05.086Z,30.35
2017-06-22T11:09:32.518Z,30.25
2017-06-22T11:12:01.256Z,30.45
2017-06-22T11:14:28.675Z,31.06
2017-06-22T11:16:56.599Z,31.71
2017-06-22T11:19:24.453Z,31.00
2017-06-22T11:21:52.072Z,31.36
2017-06-22T11:24:20.266Z,30.46
2017-06-22T11:26:47.917Z,29.95
2017-06-22T11:29:15.584Z,30.88
2017-06-22T11:31:43.002Z,30.27
2017-06-22T11:34:13.070Z,30.71
2017-06-22T11:36:42.387Z,31.04
2017-06-22T11:39:10.266Z,30.90
2017-06-22T11:41:38.552Z,30.87
2017-06-22T11:44:07.506Z,29.96
2017-06-22T11:46:35.378Z,30.58
2017-06-22T11:49:03.429Z,30.81
2017-06-22T11:51:30.867Z,31.31
2017-06-22T11:53:58.531Z,30.73
2017-06-22T11:56:26.119Z,30.93
2017-06-22T11:58:53.582Z,29.96
2017-06-22T12:01:21.750Z,30.37
2017-06-22T12:03:50.519Z,30.28
2017-06-22T12:06:18.092Z,31.94
2017-06-22T12:08:45.551Z,30.02
2017-06-22T12:11:13.224Z,30.67
2017-06-22T12:13:40.986Z,30.43
2017-06-22T12:16:08.407Z,30.43
2017-06-22T12:18:39.066Z,29.78
2017-06-22T12:21:06.512Z,29.06
2017-06-22T12:23:35.524Z,29.32
2017-06-22T12:26:05.883Z,28.21
2017-06-22T12:28:33.309Z,28.43
2017-06-22T12:31:01.066Z,27.37
2017-06-22T12:33:28.506Z,28.19
2017-06-22T12:35:59.287Z,28.36
2017-06-22T12:38:26.707Z,29.81
2017-06-22T12:40:54.887Z,29.76
2017-06-22T12:43:22.319Z,29.10
2017-06-22T12:45:49.763Z,27.51
2017-06-22T12:48:17.246Z,27.97
2017-06-22T12:50:44.674Z,26.64
2017-06-22T12:53:12.153Z,26.91
2017-06-22T12:55:39.877Z,25.62
2017-06-22T12:58:09.802Z,25.80
2017-06-22T13:00:37.238Z,26.76
2017-06-22T13:03:05.698Z,27.00
2017-06-22T13:05:33.354Z,26.63
2017-06-22T13:08:01.412Z,26.52
2017-06-22T13:10:30.849Z,27.91
2017-06-22T13:12:59.322Z,26.72
2017-06-22T13:15:27.699Z,26.70
2017-06-22T13:17:57.577Z,27.11
2017-06-22T13:20:25.768Z,28.52
2017-06-22T13:22:53.236Z,28.24
2017-06-22T13:25:21.002Z,29.56
2017-06-22T13:27:48.440Z,28.56
2017-06-22T13:30:15.864Z,28.76
2017-06-22T13:32:43.442Z,29.54
2017-06-22T13:35:11.041Z,29.65
2017-06-22T13:37:38.479Z,30.53
2017-06-22T13:40:08.819Z,30.31
2017-06-22T13:42:39.418Z,30.69
2017-06-22T13:45:09.088Z,30.58
2017-06-22T13:47:36.989Z,30.93
2017-06-22T13:50:04.436Z,31.19
2017-06-22T13:52:33.034Z,32.24
2017-06-22T13:55:00.460Z,31.45
2017-06-22T13:57:27.881Z,31.62
2017-06-22T13:59:55.866Z,31.92
2017-06-22T14:02:28.769Z,31.31
2017-06-22T14:04:56.234Z,30.36
2017-06-22T14:07:24.151Z,30.29
2017-06-22T14:09:51.581Z,30.55
2017-06-22T14:12:19.282Z,30.34
2017-06-22T14:14:46.805Z,29.44
2017-06-22T14:17:14.846Z,29.92
2017-06-22T14:19:42.387Z,30.12
2017-06-22T14:22:09.890Z,30.74
2017-06-22T14:24:37.329Z,30.65
2017-06-22T14:27:05.543Z,30.48
2017-06-22T14:29:33.717Z,30.81
2017-06-22T14:32:01.135Z,31.16
2017-06-22T14:34:28.708Z,31.23
2017-06-22T14:36:56.183Z,31.53
2017-06-22T14:39:23.677Z,32.31
2017-06-22T14:41:51.489Z,32.80
2017-06-22T14:44:18.911Z,33.11
2017-06-22T14:46:46.341Z,32.93
2017-06-22T14:49:13.964Z,33.14
2017-06-22T14:51:42.263Z,33.91
2017-06-22T14:54:09.688Z,32.86
2017-06-22T14:56:38.157Z,33.15
2017-06-22T14:59:08.229Z,32.80
2017-06-22T15:01:36.432Z,33.56
2017-06-22T15:04:04.338Z,32.89
2017-06-22T15:06:32.065Z,32.64
2017-06-22T15:08:59.520Z,32.80
2017-06-22T15:11:27.105Z,33.25
2017-06-22T15:13:54.679Z,32.44
2017-06-22T15:16:22.552Z,31.49
2017-06-22T15:18:50.299Z,32.18
2017-06-22T15:21:17.739Z,31.68
2017-06-22T15:23:45.174Z,31.67
2017-06-22T15:26:13.194Z,31.14
2017-06-22T15:28:40.642Z,31.40
2017-06-22T15:31:08.087Z,30.88
2017-06-22T15:33:35.562Z,30.55
2017-06-22T15:36:03.015Z,30.85
2017-06-22T15:38:30.954Z,31.18
2017-06-22T15:40:58.688Z,31.40
2017-06-22T15:43:26.135Z,31.25
2017-06-22T15:45:53.571Z,31.04
2017-06-22T15:48:21.075Z,31.66
2017-06-22T15:50:48.500Z,31.68
2017-06-22T15:53:16.444Z,32.35
2017-06-22T15:55:49.022Z,31.46
2017-06-22T15:58:16.463Z,31.85
2017-06-22T16:00:44.813Z,32.13
2017-06-22T16:03:12.420Z,31.81
2017-06-22T16:05:39.878Z,32.36
2017-06-22T16:08:07.352Z,31.64
2017-06-22T16:10:35.218Z,31.44
2017-06-22T16:13:02.686Z,32.87
2017-06-22T16:15:30.128Z,31.70
2017-06-22T16:17:58.486Z,31.90
2017-06-22T16:20:25.919Z,32.18
2017-06-22T16:22:53.601Z,32.45
2017-06-22T16:25:21.064Z,32.63
2017-06-22T16:27:48.506Z,33.02
2017-06-22T16:30:16.426Z,33.03
2017-06-22T16:32:44.195Z,33.24
2017-06-22T16:35:12.520Z,33.57
2017-06-22T16:37:40.021Z,33.79
2017-06-22T16:40:07.494Z,34.12
2017-06-22T16:42:34.979Z,34.86
2017-06-22T16:45:02.721Z,35.12
2017-06-22T16:47:30.532Z,35.61
2017-06-22T16:49:57.976Z,36.06
2017-06-22T16:52:25.403Z,35.91
2017-06-22T16:54:52.880Z,36.03
2017-06-22T16:57:20.306Z,36.91
2017-06-22T16:59:47.730Z,36.51
2017-06-22T17:02:15.229Z,36.77
2017-06-22T17:04:42.670Z,36.04
2017-06-22T17:07:10.114Z,35.95
2017-06-22T17:09:38.483Z,36.36
2017-06-22T17:12:05.910Z,36.83
2017-06-22T17:14:33.359Z,36.92
2017-06-22T17:17:00.889Z,37.57
2017-06-22T17:19:28.334Z,37.38
2017-06-22T17:21:56.449Z,37.88
2017-06-22T17:24:24.077Z,37.35
2017-06-22T17:26:51.559Z,37.34
2017-06-22T17:29:20.047Z,36.93
2017-06-22T17:31:55.246Z,36.71
2017-06-22T17:34:22.687Z,35.98
2017-06-22T17:36:50.331Z,36.33
2017-06-22T17:39:17.987Z,36.66
2017-06-22T17:41:45.419Z,37.01
2017-06-22T17:44:13.540Z,37.42
2017-06-22T17:46:43.760Z,37.59
2017-06-22T17:49:11.240Z,37.59
2017-06-22T17:51:38.703Z,38.04
2017-06-22T17:54:06.223Z,38.40
2017-06-22T17:56:33.736Z,38.51
2017-06-22T17:59:01.187Z,38.15
2017-06-22T18:01:29.836Z,38.73
2017-06-22T18:03:57.641Z,38.87
2017-06-22T18:06:25.055Z,38.66
2017-06-22T18:08:52.926Z,38.93
2017-06-22T18:11:20.347Z,39.16
2017-06-22T18:13:47.769Z,39.44
2017-06-22T18:16:15.293Z,39.89
2017-06-22T18:18:42.759Z,39.99
2017-06-22T18:21:10.443Z,42.19
2017-06-22T18:23:38.429Z,39.54
2017-06-22T18:26:05.838Z,39.41
2017-06-22T18:28:33.251Z,39.88
2017-06-22T18:31:00.721Z,40.24
2017-06-22T18:33:28.130Z,40.84
2017-06-22T18:35:55.547Z,41.85
2017-06-22T18:38:23.387Z,41.81
2017-06-22T18:40:50.952Z,42.15
2017-06-22T18:43:20.695Z,42.26
2017-06-22T18:45:48.954Z,43.46
2017-06-22T18:48:17.190Z,42.15
2017-06-22T18:50:44.840Z,43.62
2017-06-22T18:53:12.608Z,43.92
2017-06-22T18:55:40.024Z,45.38
2017-06-22T18:58:07.455Z,45.53
2017-06-22T19:00:34.896Z,45.73
2017-06-22T19:03:03.053Z,46.60
2017-06-22T19:05:30.744Z,46.62
2017-06-22T19:07:58.171Z,46.80
2017-06-22T19:10:25.603Z,47.03
2017-06-22T19:12:53.054Z,47.25
2017-06-22T19:15:20.811Z,48.46
2017-06-22T19:17:48.584Z,48.39
2017-06-22T19:20:15.997Z,48.70
2017-06-22T19:22:43.691Z,49.08
2017-06-22T19:25:11.621Z,49.43
2017-06-22T19:27:39.091Z,49.96
2017-06-22T19:30:06.624Z,50.30
2017-06-22T19:32:34.041Z,50.21
2017-06-22T19:35:01.461Z,50.96
2017-06-22T19:37:29.334Z,50.98
2017-06-22T19:39:56.757Z,51.29
2017-06-22T19:42:24.518Z,51.72
2017-06-22T19:44:52.435Z,52.06
2017-06-22T19:47:20.114Z,53.36
2017-06-22T19:49:47.536Z,53.42
2017-06-22T19:52:16.026Z,53.93
2017-06-22T19:54:45.171Z,54.07
2017-06-22T19:57:15.421Z,54.72
2017-06-22T19:59:43.318Z,55.72
2017-06-22T20:02:10.752Z,56.02
2017-06-22T20:04:38.723Z,56.61
2017-06-22T20:07:06.137Z,57.62
2017-06-22T20:09:33.550Z,58.26
2017-06-22T20:12:01.679Z,58.65
2017-06-22T20:14:29.101Z,59.52
2017-06-22T20:16:56.538Z,60.64
2017-06-22T20:19:25.180Z,61.28
2017-06-22T20:21:52.728Z,61.84
2017-06-22T20:24:20.159Z,62.22
2017-06-22T20:26:47.678Z,62.40
2017-06-22T20:29:15.119Z,62.25
2017-06-22T20:31:42.543Z,62.65
2017-06-22T20:34:10.044Z,62.81
2017-06-22T20:36:37.741Z,62.96
2017-06-22T20:39:05.207Z,63.25
2017-06-22T20:41:32.767Z,62.24
2017-06-22T20:44:01.103Z,61.75
2017-06-22T20:46:28.558Z,61.53
2017-06-22T20:48:56.308Z,60.80
2017-06-22T20:51:23.743Z,60.51
2017-06-22T20:53:51.714Z,60.58
2017-06-22T20:56:19.542Z,60.48
2017-06-22T20:58:47.125Z,60.09
2017-06-22T21:01:14.554Z,60.12
2017-06-22T21:03:42.067Z,58.95
2017-06-22T21:06:09.518Z,58.73
2017-06-22T21:08:37.779Z,58.55
2017-06-22T21:11:05.343Z,58.06
2017-06-22T21:13:35.234Z,57.86
2017-06-22T21:16:02.735Z,57.88
2017-06-22T21:18:30.688Z,57.95
2017-06-22T21:20:58.129Z,57.64
2017-06-22T21:23:25.564Z,57.99
2017-06-22T21:25:53.782Z,58.53
2017-06-22T21:28:21.227Z,58.44
2017-06-22T21:30:48.683Z,58.16
2017-06-22T21:33:22.419Z,58.33
2017-06-22T21:35:50.212Z,58.44
2017-06-22T21:38:18.440Z,58.64
2017-06-22T21:40:46.208Z,58.88
2017-06-22T21:43:13.635Z,58.95
2017-06-22T21:45:41.083Z,58.99
2017-06-22T21:48:09.065Z,59.15
2017-06-22T21:50:36.494Z,59.21
2017-06-22T21:53:03.930Z,59.25
2017-06-22T21:55:32.090Z,59.80
2017-06-22T21:58:00.149Z,59.58
2017-06-22T22:00:27.590Z,59.34
2017-06-22T22:02:55.187Z,59.15
2017-06-22T22:05:23.311Z,59.39
2017-06-22T22:07:51.304Z,59.35
2017-06-22T22:10:21.547Z,59.58
2017-06-22T22:12:49.249Z,59.16
2017-06-22T22:15:16.677Z,59.31
2017-06-22T22:17:44.507Z,59.75
2017-06-22T22:20:12.734Z,59.80
2017-06-22T22:22:40.167Z,60.31
2017-06-22T22:25:08.364Z,60.36
2017-06-22T22:27:36.143Z,60.55
2017-06-22T22:30:03.600Z,60.21
2017-06-22T22:32:31.191Z,60.36
2017-06-22T22:34:58.620Z,60.53
2017-06-22T22:37:26.122Z,60.44
2017-06-22T22:39:54.346Z,60.73
2017-06-22T22:42:21.859Z,61.17
2017-06-22T22:44:51.607Z,61.19
2017-06-22T22:47:19.063Z,61.41
2017-06-22T22:49:46.511Z,61.36
2017-06-22T22:55:12.229Z,61.88
2017-06-22T22:57:39.670Z,62.00
2017-06-22T23:00:07.110Z,62.20
2017-06-22T23:02:34.575Z,62.65
2017-06-22T23:05:02.653Z,62.96
2017-06-22T23:07:30.111Z,63.01
2017-06-22T23:09:57.591Z,63.15
2017-06-22T23:12:25.915Z,63.46
2017-06-22T23:14:53.378Z,63.10
2017-06-22T23:17:21.637Z,63.17
2017-06-22T23:19:51.502Z,63.19
2017-06-22T23:22:23.825Z,63.40
2017-06-22T23:24:54.144Z,63.69
2017-06-22T23:27:21.615Z,63.77
2017-06-22T23:29:49.046Z,63.54
2017-06-22T23:32:19.616Z,63.78
2017-06-22T23:34:47.812Z,63.89
2017-06-22T23:37:15.272Z,64.06
2017-06-22T23:39:44.008Z,64.43
2017-06-22T23:42:13.114Z,64.27
2017-06-22T23:44:41.058Z,63.94
2017-06-22T23:47:09.771Z,64.03
2017-06-22T23:49:37.226Z,64.50
2017-06-22T23:52:11.414Z,64.53
2017-06-22T23:54:39.550Z,64.08
2017-06-22T23:57:08.746Z,63.96
2017-06-22T23:59:36.847Z,64.19
